Orlando, Florida
Traffic Map
Current Weather Conditions
Orlando, Florida
Broken Clouds
Broken Clouds
27°
Feels Like: 30°
Wind Chill: 27° Ceiling: 3300
Heat Index: 30° Visibility: 10mi
Dew Point: 24° Wind: 7mph
Humidity: 82% Direction: 270° (W)
Pressure: 29.87in Gusts: 0mph
Raw Report DataKORL 301453Z 27006KT 10SM FEW015 SCT021 BKN033 27/24 A2987 RMK AO2 SLP118 T02720239 53006
Traffic Incident Summary
Active as of:
Severity:
Category:
InformationThere was an issue retrieving the traffic information for this location. Please try a different location or try again shortly.
Advertisements
Track Severe Weather on mobile